sensor_id;sensor_type;location;lat;lon;timestamp;P1;durP1;ratioP1;P2;durP2;ratioP2
25990;SDS011;13779;-33.886;151.198;2022-08-19T00:02:00;3.25;;;2.15;;
25990;SDS011;13779;-33.886;151.198;2022-08-19T00:05:40;8.32;;;2.10;;
25990;SDS011;13779;-33.886;151.198;2022-08-19T00:08:48;2.85;;;0.88;;
25990;SDS011;13779;-33.886;151.198;2022-08-19T00:11:20;1.77;;;1.10;;
25990;SDS011;13779;-33.886;151.198;2022-08-19T00:13:52;1.65;;;1.13;;
25990;SDS011;13779;-33.886;151.198;2022-08-19T00:20:47;1.90;;;0.93;;
25990;SDS011;13779;-33.886;151.198;2022-08-19T00:23:41;2.55;;;1.05;;
25990;SDS011;13779;-33.886;151.198;2022-08-19T00:26:40;2.90;;;1.60;;
25990;SDS011;13779;-33.886;151.198;2022-08-19T00:33:54;2.28;;;1.30;;
25990;SDS011;13779;-33.886;151.198;2022-08-19T00:40:46;2.47;;;1.10;;
25990;SDS011;13779;-33.886;151.198;2022-08-19T00:43:29;6.32;;;1.02;;
25990;SDS011;13779;-33.886;151.198;2022-08-19T00:46:25;9.55;;;1.58;;
25990;SDS011;13779;-33.886;151.198;2022-08-19T00:55:40;1.15;;;0.95;;
25990;SDS011;13779;-33.886;151.198;2022-08-19T00:58:44;3.22;;;1.20;;
25990;SDS011;13779;-33.886;151.198;2022-08-19T01:01:30;2.88;;;0.98;;
25990;SDS011;13779;-33.886;151.198;2022-08-19T01:04:26;1.23;;;0.85;;
25990;SDS011;13779;-33.886;151.198;2022-08-19T01:06:57;2.55;;;0.77;;
25990;SDS011;13779;-33.886;151.198;2022-08-19T01:12:21;3.97;;;0.75;;
25990;SDS011;13779;-33.886;151.198;2022-08-19T01:14:52;0.88;;;0.60;;
25990;SDS011;13779;-33.886;151.198;2022-08-19T01:17:34;2.67;;;0.50;;
25990;SDS011;13779;-33.886;151.198;2022-08-19T01:20:10;3.47;;;1.02;;
25990;SDS011;13779;-33.886;151.198;2022-08-19T01:22:44;1.17;;;0.82;;
25990;SDS011;13779;-33.886;151.198;2022-08-19T01:25:22;3.63;;;0.80;;
25990;SDS011;13779;-33.886;151.198;2022-08-19T01:28:00;1.45;;;0.60;;
25990;SDS011;13779;-33.886;151.198;2022-08-19T01:30:35;3.92;;;0.82;;
25990;SDS011;13779;-33.886;151.198;2022-08-19T01:33:11;1.67;;;0.47;;
25990;SDS011;13779;-33.886;151.198;2022-08-19T01:35:46;3.53;;;0.70;;
25990;SDS011;13779;-33.886;151.198;2022-08-19T01:38:23;3.22;;;0.63;;
25990;SDS011;13779;-33.886;151.198;2022-08-19T01:40:57;1.70;;;0.80;;
25990;SDS011;13779;-33.886;151.198;2022-08-19T01:43:28;3.13;;;0.77;;
25990;SDS011;13779;-33.886;151.198;2022-08-19T01:45:59;2.17;;;0.75;;
25990;SDS011;13779;-33.886;151.198;2022-08-19T01:48:33;4.82;;;1.20;;
25990;SDS011;13779;-33.886;151.198;2022-08-19T01:51:06;1.48;;;0.70;;
25990;SDS011;13779;-33.886;151.198;2022-08-19T01:53:41;4.15;;;0.90;;
25990;SDS011;13779;-33.886;151.198;2022-08-19T01:56:16;2.22;;;0.93;;
25990;SDS011;13779;-33.886;151.198;2022-08-19T01:59:02;1.58;;;0.80;;
25990;SDS011;13779;-33.886;151.198;2022-08-19T02:01:38;2.05;;;0.80;;
25990;SDS011;13779;-33.886;151.198;2022-08-19T02:04:12;5.03;;;1.08;;
25990;SDS011;13779;-33.886;151.198;2022-08-19T02:06:43;0.85;;;0.60;;
25990;SDS011;13779;-33.886;151.198;2022-08-19T02:09:14;2.60;;;0.50;;
25990;SDS011;13779;-33.886;151.198;2022-08-19T02:11:57;1.50;;;0.70;;
25990;SDS011;13779;-33.886;151.198;2022-08-19T02:14:28;1.63;;;0.40;;
25990;SDS011;13779;-33.886;151.198;2022-08-19T02:17:02;1.38;;;0.52;;
25990;SDS011;13779;-33.886;151.198;2022-08-19T02:19:49;2.25;;;1.40;;
25990;SDS011;13779;-33.886;151.198;2022-08-19T02:22:20;6.80;;;6.20;;
25990;SDS011;13779;-33.886;151.198;2022-08-19T02:24:54;2.67;;;1.40;;
25990;SDS011;13779;-33.886;151.198;2022-08-19T02:27:33;3.50;;;1.00;;
25990;SDS011;13779;-33.886;151.198;2022-08-19T02:32:36;0.93;;;0.82;;
25990;SDS011;13779;-33.886;151.198;2022-08-19T02:35:20;1.75;;;0.77;;
25990;SDS011;13779;-33.886;151.198;2022-08-19T02:38:32;1.20;;;0.80;;
25990;SDS011;13779;-33.886;151.198;2022-08-19T02:41:14;3.42;;;0.77;;
25990;SDS011;13779;-33.886;151.198;2022-08-19T02:43:47;3.55;;;0.77;;
25990;SDS011;13779;-33.886;151.198;2022-08-19T02:46:38;2.40;;;1.25;;
25990;SDS011;13779;-33.886;151.198;2022-08-19T02:49:15;1.58;;;0.50;;
25990;SDS011;13779;-33.886;151.198;2022-08-19T02:51:47;1.02;;;0.50;;
25990;SDS011;13779;-33.886;151.198;2022-08-19T02:54:18;2.47;;;0.57;;
25990;SDS011;13779;-33.886;151.198;2022-08-19T02:56:49;0.35;;;0.25;;
25990;SDS011;13779;-33.886;151.198;2022-08-19T02:59:21;0.95;;;0.40;;
25990;SDS011;13779;-33.886;151.198;2022-08-19T03:02:21;1.08;;;0.75;;
25990;SDS011;13779;-33.886;151.198;2022-08-19T03:04:52;0.82;;;0.43;;
25990;SDS011;13779;-33.886;151.198;2022-08-19T03:07:23;2.50;;;0.50;;
25990;SDS011;13779;-33.886;151.198;2022-08-19T03:10:09;1.40;;;0.73;;
25990;SDS011;13779;-33.886;151.198;2022-08-19T03:12:40;0.40;;;0.40;;
25990;SDS011;13779;-33.886;151.198;2022-08-19T03:15:11;0.50;;;0.50;;
25990;SDS011;13779;-33.886;151.198;2022-08-19T03:17:42;0.47;;;0.45;;
25990;SDS011;13779;-33.886;151.198;2022-08-19T03:20:13;1.08;;;0.60;;
25990;SDS011;13779;-33.886;151.198;2022-08-19T03:22:50;1.60;;;0.20;;
25990;SDS011;13779;-33.886;151.198;2022-08-19T03:25:21;0.22;;;0.22;;
25990;SDS011;13779;-33.886;151.198;2022-08-19T03:27:55;0.30;;;0.30;;
25990;SDS011;13779;-33.886;151.198;2022-08-19T03:30:54;0.82;;;0.50;;
25990;SDS011;13779;-33.886;151.198;2022-08-19T03:34:31;0.70;;;0.68;;
25990;SDS011;13779;-33.886;151.198;2022-08-19T03:37:05;2.40;;;0.40;;
25990;SDS011;13779;-33.886;151.198;2022-08-19T03:39:43;2.35;;;0.50;;
25990;SDS011;13779;-33.886;151.198;2022-08-19T03:42:27;1.08;;;0.40;;
25990;SDS011;13779;-33.886;151.198;2022-08-19T03:45:17;1.00;;;0.40;;
25990;SDS011;13779;-33.886;151.198;2022-08-19T03:47:51;0.40;;;0.32;;
25990;SDS011;13779;-33.886;151.198;2022-08-19T03:50:25;0.30;;;0.30;;
25990;SDS011;13779;-33.886;151.198;2022-08-19T03:52:57;1.25;;;0.40;;
25990;SDS011;13779;-33.886;151.198;2022-08-19T03:55:44;0.73;;;0.28;;
25990;SDS011;13779;-33.886;151.198;2022-08-19T03:58:21;1.13;;;0.30;;
25990;SDS011;13779;-33.886;151.198;2022-08-19T04:00:54;2.30;;;0.40;;
25990;SDS011;13779;-33.886;151.198;2022-08-19T04:03:26;4.28;;;0.80;;
25990;SDS011;13779;-33.886;151.198;2022-08-19T04:05:57;0.57;;;0.30;;
25990;SDS011;13779;-33.886;151.198;2022-08-19T04:08:28;1.70;;;0.40;;
25990;SDS011;13779;-33.886;151.198;2022-08-19T04:10:59;0.40;;;0.40;;
25990;SDS011;13779;-33.886;151.198;2022-08-19T04:14:14;3.23;;;1.23;;
25990;SDS011;13779;-33.886;151.198;2022-08-19T04:16:48;1.25;;;0.38;;
25990;SDS011;13779;-33.886;151.198;2022-08-19T04:19:19;2.30;;;0.70;;
25990;SDS011;13779;-33.886;151.198;2022-08-19T04:22:05;0.52;;;0.52;;
25990;SDS011;13779;-33.886;151.198;2022-08-19T04:24:36;0.57;;;0.40;;
25990;SDS011;13779;-33.886;151.198;2022-08-19T04:27:07;0.50;;;0.50;;
25990;SDS011;13779;-33.886;151.198;2022-08-19T04:29:41;2.65;;;0.70;;
25990;SDS011;13779;-33.886;151.198;2022-08-19T04:32:21;1.13;;;0.60;;
25990;SDS011;13779;-33.886;151.198;2022-08-19T04:35:54;1.25;;;0.50;;
25990;SDS011;13779;-33.886;151.198;2022-08-19T04:38:27;1.50;;;0.50;;
25990;SDS011;13779;-33.886;151.198;2022-08-19T04:41:39;1.25;;;0.70;;
25990;SDS011;13779;-33.886;151.198;2022-08-19T04:44:56;0.85;;;0.50;;
25990;SDS011;13779;-33.886;151.198;2022-08-19T04:47:27;2.03;;;0.40;;
25990;SDS011;13779;-33.886;151.198;2022-08-19T04:50:14;0.40;;;0.40;;
25990;SDS011;13779;-33.886;151.198;2022-08-19T04:52:57;1.77;;;0.30;;
25990;SDS011;13779;-33.886;151.198;2022-08-19T04:55:33;0.85;;;0.50;;
25990;SDS011;13779;-33.886;151.198;2022-08-19T04:58:09;3.63;;;0.70;;
25990;SDS011;13779;-33.886;151.198;2022-08-19T05:00:40;0.70;;;0.70;;
25990;SDS011;13779;-33.886;151.198;2022-08-19T05:03:14;0.63;;;0.50;;
25990;SDS011;13779;-33.886;151.198;2022-08-19T05:05:48;0.63;;;0.50;;
25990;SDS011;13779;-33.886;151.198;2022-08-19T05:08:22;0.60;;;0.60;;
25990;SDS011;13779;-33.886;151.198;2022-08-19T05:10:57;1.05;;;0.52;;
25990;SDS011;13779;-33.886;151.198;2022-08-19T05:13:31;0.55;;;0.43;;
25990;SDS011;13779;-33.886;151.198;2022-08-19T05:16:02;2.40;;;0.50;;
25990;SDS011;13779;-33.886;151.198;2022-08-19T05:21:22;2.13;;;0.32;;
25990;SDS011;13779;-33.886;151.198;2022-08-19T05:24:24;0.85;;;0.50;;
25990;SDS011;13779;-33.886;151.198;2022-08-19T05:26:59;0.50;;;0.50;;
25990;SDS011;13779;-33.886;151.198;2022-08-19T05:29:34;1.02;;;0.50;;
25990;SDS011;13779;-33.886;151.198;2022-08-19T05:32:08;0.93;;;0.50;;
25990;SDS011;13779;-33.886;151.198;2022-08-19T05:34:47;2.38;;;0.50;;
25990;SDS011;13779;-33.886;151.198;2022-08-19T05:37:29;0.98;;;0.50;;
25990;SDS011;13779;-33.886;151.198;2022-08-19T05:40:03;3.78;;;0.80;;
25990;SDS011;13779;-33.886;151.198;2022-08-19T05:42:40;2.28;;;0.45;;
25990;SDS011;13779;-33.886;151.198;2022-08-19T05:45:11;2.05;;;0.43;;
25990;SDS011;13779;-33.886;151.198;2022-08-19T05:47:41;0.63;;;0.50;;
25990;SDS011;13779;-33.886;151.198;2022-08-19T05:50:13;0.80;;;0.40;;
25990;SDS011;13779;-33.886;151.198;2022-08-19T05:52:46;0.60;;;0.50;;
25990;SDS011;13779;-33.886;151.198;2022-08-19T05:55:17;1.33;;;0.40;;
25990;SDS011;13779;-33.886;151.198;2022-08-19T05:57:53;0.20;;;0.20;;
25990;SDS011;13779;-33.886;151.198;2022-08-19T06:00:37;3.50;;;0.50;;
25990;SDS011;13779;-33.886;151.198;2022-08-19T06:05:39;0.50;;;0.50;;
25990;SDS011;13779;-33.886;151.198;2022-08-19T06:08:15;0.63;;;0.30;;
25990;SDS011;13779;-33.886;151.198;2022-08-19T06:11:22;0.85;;;0.20;;
25990;SDS011;13779;-33.886;151.198;2022-08-19T06:13:51;3.97;;;0.30;;
25990;SDS011;13779;-33.886;151.198;2022-08-19T06:16:29;1.88;;;0.40;;
25990;SDS011;13779;-33.886;151.198;2022-08-19T06:19:28;2.30;;;0.43;;
25990;SDS011;13779;-33.886;151.198;2022-08-19T06:22:00;0.60;;;0.50;;
25990;SDS011;13779;-33.886;151.198;2022-08-19T06:24:32;2.65;;;0.60;;
25990;SDS011;13779;-33.886;151.198;2022-08-19T06:27:10;0.30;;;0.30;;
25990;SDS011;13779;-33.886;151.198;2022-08-19T06:29:44;9.73;;;2.23;;
25990;SDS011;13779;-33.886;151.198;2022-08-19T06:32:24;11.93;;;2.40;;
25990;SDS011;13779;-33.886;151.198;2022-08-19T06:34:58;16.08;;;2.50;;
25990;SDS011;13779;-33.886;151.198;2022-08-19T06:37:33;13.88;;;2.83;;
25990;SDS011;13779;-33.886;151.198;2022-08-19T06:40:10;15.57;;;2.45;;
25990;SDS011;13779;-33.886;151.198;2022-08-19T06:43:11;16.67;;;2.55;;
25990;SDS011;13779;-33.886;151.198;2022-08-19T06:45:47;10.70;;;2.28;;
25990;SDS011;13779;-33.886;151.198;2022-08-19T06:48:20;15.15;;;2.50;;
25990;SDS011;13779;-33.886;151.198;2022-08-19T06:50:51;14.57;;;2.38;;
25990;SDS011;13779;-33.886;151.198;2022-08-19T06:53:25;19.60;;;2.80;;
25990;SDS011;13779;-33.886;151.198;2022-08-19T06:56:07;10.93;;;1.95;;
25990;SDS011;13779;-33.886;151.198;2022-08-19T06:59:10;13.85;;;2.15;;
25990;SDS011;13779;-33.886;151.198;2022-08-19T07:01:44;8.95;;;1.70;;
25990;SDS011;13779;-33.886;151.198;2022-08-19T07:04:23;9.13;;;1.92;;
25990;SDS011;13779;-33.886;151.198;2022-08-19T07:07:07;11.90;;;2.15;;
25990;SDS011;13779;-33.886;151.198;2022-08-19T07:09:45;6.60;;;1.70;;
25990;SDS011;13779;-33.886;151.198;2022-08-19T07:12:17;10.57;;;1.88;;
25990;SDS011;13779;-33.886;151.198;2022-08-19T07:14:48;6.53;;;1.60;;
25990;SDS011;13779;-33.886;151.198;2022-08-19T07:17:22;6.68;;;1.70;;
25990;SDS011;13779;-33.886;151.198;2022-08-19T07:19:55;4.15;;;1.08;;
25990;SDS011;13779;-33.886;151.198;2022-08-19T07:22:41;4.25;;;1.30;;
25990;SDS011;13779;-33.886;151.198;2022-08-19T07:25:15;9.30;;;2.50;;
25990;SDS011;13779;-33.886;151.198;2022-08-19T07:27:58;5.70;;;1.83;;
25990;SDS011;13779;-33.886;151.198;2022-08-19T07:30:29;8.65;;;1.58;;
25990;SDS011;13779;-33.886;151.198;2022-08-19T07:32:59;4.90;;;1.30;;
25990;SDS011;13779;-33.886;151.198;2022-08-19T07:35:33;5.40;;;1.08;;
25990;SDS011;13779;-33.886;151.198;2022-08-19T07:38:06;7.28;;;1.83;;
25990;SDS011;13779;-33.886;151.198;2022-08-19T07:40:37;5.05;;;1.40;;
25990;SDS011;13779;-33.886;151.198;2022-08-19T07:43:10;5.70;;;1.33;;
25990;SDS011;13779;-33.886;151.198;2022-08-19T07:45:46;6.57;;;1.30;;
25990;SDS011;13779;-33.886;151.198;2022-08-19T07:48:43;6.05;;;1.40;;
25990;SDS011;13779;-33.886;151.198;2022-08-19T07:51:36;2.72;;;1.30;;
25990;SDS011;13779;-33.886;151.198;2022-08-19T07:54:12;6.43;;;1.30;;
25990;SDS011;13779;-33.886;151.198;2022-08-19T07:56:43;3.70;;;1.10;;
25990;SDS011;13779;-33.886;151.198;2022-08-19T07:59:14;4.38;;;1.40;;
25990;SDS011;13779;-33.886;151.198;2022-08-19T08:01:47;5.32;;;1.10;;
25990;SDS011;13779;-33.886;151.198;2022-08-19T08:04:20;3.25;;;1.00;;
25990;SDS011;13779;-33.886;151.198;2022-08-19T08:07:08;3.47;;;1.15;;
25990;SDS011;13779;-33.886;151.198;2022-08-19T08:09:57;3.17;;;1.10;;
25990;SDS011;13779;-33.886;151.198;2022-08-19T08:12:31;5.88;;;1.50;;
25990;SDS011;13779;-33.886;151.198;2022-08-19T08:15:06;5.25;;;1.77;;
25990;SDS011;13779;-33.886;151.198;2022-08-19T08:17:38;5.38;;;1.48;;
25990;SDS011;13779;-33.886;151.198;2022-08-19T08:20:16;3.70;;;1.00;;
25990;SDS011;13779;-33.886;151.198;2022-08-19T08:22:47;1.45;;;1.10;;
25990;SDS011;13779;-33.886;151.198;2022-08-19T08:25:35;6.13;;;1.27;;
25990;SDS011;13779;-33.886;151.198;2022-08-19T08:28:06;7.60;;;0.98;;
25990;SDS011;13779;-33.886;151.198;2022-08-19T08:30:43;3.90;;;1.27;;
25990;SDS011;13779;-33.886;151.198;2022-08-19T08:33:20;9.48;;;1.90;;
25990;SDS011;13779;-33.886;151.198;2022-08-19T08:35:54;5.53;;;1.35;;
25990;SDS011;13779;-33.886;151.198;2022-08-19T08:38:24;2.28;;;1.10;;
25990;SDS011;13779;-33.886;151.198;2022-08-19T08:40:57;4.20;;;1.00;;
25990;SDS011;13779;-33.886;151.198;2022-08-19T08:43:41;2.55;;;1.27;;
25990;SDS011;13779;-33.886;151.198;2022-08-19T08:46:19;5.68;;;1.30;;
25990;SDS011;13779;-33.886;151.198;2022-08-19T08:54:41;6.05;;;1.50;;
25990;SDS011;13779;-33.886;151.198;2022-08-19T09:00:17;4.22;;;1.10;;
25990;SDS011;13779;-33.886;151.198;2022-08-19T09:02:57;5.43;;;1.75;;
25990;SDS011;13779;-33.886;151.198;2022-08-19T09:05:41;4.85;;;1.05;;
25990;SDS011;13779;-33.886;151.198;2022-08-19T09:08:48;3.53;;;1.00;;
25990;SDS011;13779;-33.886;151.198;2022-08-19T09:14:34;4.25;;;1.27;;
25990;SDS011;13779;-33.886;151.198;2022-08-19T09:17:17;7.80;;;1.77;;
25990;SDS011;13779;-33.886;151.198;2022-08-19T09:22:37;3.40;;;1.35;;
25990;SDS011;13779;-33.886;151.198;2022-08-19T09:25:13;5.03;;;1.23;;
25990;SDS011;13779;-33.886;151.198;2022-08-19T09:27:50;3.58;;;1.40;;
25990;SDS011;13779;-33.886;151.198;2022-08-19T09:30:38;3.75;;;1.45;;
25990;SDS011;13779;-33.886;151.198;2022-08-19T09:33:10;5.15;;;1.98;;
25990;SDS011;13779;-33.886;151.198;2022-08-19T09:35:40;3.38;;;1.40;;
25990;SDS011;13779;-33.886;151.198;2022-08-19T09:38:15;4.43;;;1.80;;
25990;SDS011;13779;-33.886;151.198;2022-08-19T09:40:46;3.20;;;1.50;;
25990;SDS011;13779;-33.886;151.198;2022-08-19T09:43:16;4.22;;;1.85;;
25990;SDS011;13779;-33.886;151.198;2022-08-19T09:45:52;4.45;;;1.70;;
25990;SDS011;13779;-33.886;151.198;2022-08-19T09:48:22;7.00;;;1.70;;
25990;SDS011;13779;-33.886;151.198;2022-08-19T09:50:52;5.07;;;2.40;;
25990;SDS011;13779;-33.886;151.198;2022-08-19T09:53:22;6.18;;;2.58;;
25990;SDS011;13779;-33.886;151.198;2022-08-19T09:55:56;5.85;;;2.50;;
25990;SDS011;13779;-33.886;151.198;2022-08-19T09:58:26;8.85;;;2.10;;
25990;SDS011;13779;-33.886;151.198;2022-08-19T10:03:29;3.88;;;2.63;;
25990;SDS011;13779;-33.886;151.198;2022-08-19T10:06:02;5.82;;;2.90;;
25990;SDS011;13779;-33.886;151.198;2022-08-19T10:08:40;5.75;;;2.80;;
25990;SDS011;13779;-33.886;151.198;2022-08-19T10:11:16;6.60;;;2.40;;
25990;SDS011;13779;-33.886;151.198;2022-08-19T10:13:54;5.32;;;2.45;;
25990;SDS011;13779;-33.886;151.198;2022-08-19T10:16:24;3.85;;;2.58;;
25990;SDS011;13779;-33.886;151.198;2022-08-19T10:18:56;5.13;;;1.80;;
25990;SDS011;13779;-33.886;151.198;2022-08-19T10:21:27;4.63;;;2.25;;
25990;SDS011;13779;-33.886;151.198;2022-08-19T10:24:00;6.20;;;2.70;;
25990;SDS011;13779;-33.886;151.198;2022-08-19T10:26:36;2.65;;;1.95;;
25990;SDS011;13779;-33.886;151.198;2022-08-19T10:29:13;6.32;;;3.05;;
25990;SDS011;13779;-33.886;151.198;2022-08-19T10:31:58;3.20;;;1.90;;
25990;SDS011;13779;-33.886;151.198;2022-08-19T10:34:30;2.22;;;1.52;;
25990;SDS011;13779;-33.886;151.198;2022-08-19T10:37:02;4.40;;;1.63;;
25990;SDS011;13779;-33.886;151.198;2022-08-19T10:39:36;3.05;;;1.60;;
25990;SDS011;13779;-33.886;151.198;2022-08-19T10:42:08;6.28;;;2.17;;
25990;SDS011;13779;-33.886;151.198;2022-08-19T10:44:42;4.35;;;2.10;;
25990;SDS011;13779;-33.886;151.198;2022-08-19T10:47:12;3.95;;;1.83;;
25990;SDS011;13779;-33.886;151.198;2022-08-19T10:49:43;3.35;;;2.30;;
25990;SDS011;13779;-33.886;151.198;2022-08-19T10:52:38;6.00;;;2.88;;
25990;SDS011;13779;-33.886;151.198;2022-08-19T10:55:16;5.15;;;2.90;;
25990;SDS011;13779;-33.886;151.198;2022-08-19T10:58:18;3.53;;;2.53;;
25990;SDS011;13779;-33.886;151.198;2022-08-19T11:00:56;7.82;;;3.03;;
25990;SDS011;13779;-33.886;151.198;2022-08-19T11:03:28;3.97;;;2.55;;
25990;SDS011;13779;-33.886;151.198;2022-08-19T11:06:03;6.70;;;4.10;;
25990;SDS011;13779;-33.886;151.198;2022-08-19T11:08:35;6.38;;;3.80;;
25990;SDS011;13779;-33.886;151.198;2022-08-19T11:11:06;8.90;;;6.95;;
25990;SDS011;13779;-33.886;151.198;2022-08-19T11:13:38;8.20;;;5.88;;
25990;SDS011;13779;-33.886;151.198;2022-08-19T11:16:11;6.55;;;4.40;;
25990;SDS011;13779;-33.886;151.198;2022-08-19T11:18:44;8.65;;;4.13;;
25990;SDS011;13779;-33.886;151.198;2022-08-19T11:21:18;9.10;;;3.40;;
25990;SDS011;13779;-33.886;151.198;2022-08-19T11:23:54;7.28;;;4.07;;
25990;SDS011;13779;-33.886;151.198;2022-08-19T11:26:28;8.98;;;4.95;;
25990;SDS011;13779;-33.886;151.198;2022-08-19T11:29:00;4.78;;;3.53;;
25990;SDS011;13779;-33.886;151.198;2022-08-19T11:31:31;5.07;;;3.30;;
25990;SDS011;13779;-33.886;151.198;2022-08-19T11:34:04;7.53;;;3.40;;
25990;SDS011;13779;-33.886;151.198;2022-08-19T11:36:37;4.45;;;2.92;;
25990;SDS011;13779;-33.886;151.198;2022-08-19T11:39:09;3.97;;;2.60;;
25990;SDS011;13779;-33.886;151.198;2022-08-19T11:41:42;5.90;;;3.17;;
25990;SDS011;13779;-33.886;151.198;2022-08-19T11:44:12;5.72;;;3.70;;
25990;SDS011;13779;-33.886;151.198;2022-08-19T11:46:43;5.95;;;2.53;;
25990;SDS011;13779;-33.886;151.198;2022-08-19T11:49:18;6.30;;;2.97;;
25990;SDS011;13779;-33.886;151.198;2022-08-19T11:51:49;7.25;;;2.90;;
25990;SDS011;13779;-33.886;151.198;2022-08-19T11:54:19;4.35;;;2.60;;
25990;SDS011;13779;-33.886;151.198;2022-08-19T11:56:49;7.05;;;3.50;;
25990;SDS011;13779;-33.886;151.198;2022-08-19T11:59:20;7.45;;;3.80;;
25990;SDS011;13779;-33.886;151.198;2022-08-19T12:01:50;6.28;;;3.67;;
25990;SDS011;13779;-33.886;151.198;2022-08-19T12:04:20;6.40;;;4.07;;
25990;SDS011;13779;-33.886;151.198;2022-08-19T12:06:50;6.10;;;3.53;;
25990;SDS011;13779;-33.886;151.198;2022-08-19T12:09:21;7.13;;;4.78;;
25990;SDS011;13779;-33.886;151.198;2022-08-19T12:11:51;9.18;;;4.35;;
25990;SDS011;13779;-33.886;151.198;2022-08-19T12:14:21;4.25;;;2.58;;
25990;SDS011;13779;-33.886;151.198;2022-08-19T12:16:52;3.45;;;3.03;;
25990;SDS011;13779;-33.886;151.198;2022-08-19T12:19:22;3.40;;;2.50;;
25990;SDS011;13779;-33.886;151.198;2022-08-19T12:21:53;4.67;;;3.20;;
25990;SDS011;13779;-33.886;151.198;2022-08-19T12:24:33;6.50;;;3.92;;
25990;SDS011;13779;-33.886;151.198;2022-08-19T12:27:03;6.38;;;3.08;;
25990;SDS011;13779;-33.886;151.198;2022-08-19T12:29:34;8.18;;;3.53;;
25990;SDS011;13779;-33.886;151.198;2022-08-19T12:32:05;6.57;;;4.03;;
25990;SDS011;13779;-33.886;151.198;2022-08-19T12:34:37;6.40;;;2.92;;
25990;SDS011;13779;-33.886;151.198;2022-08-19T12:37:08;5.70;;;4.20;;
25990;SDS011;13779;-33.886;151.198;2022-08-19T12:39:40;6.55;;;3.50;;
25990;SDS011;13779;-33.886;151.198;2022-08-19T12:42:12;5.72;;;3.47;;
25990;SDS011;13779;-33.886;151.198;2022-08-19T12:44:43;6.78;;;3.85;;
25990;SDS011;13779;-33.886;151.198;2022-08-19T12:47:14;6.05;;;3.55;;
25990;SDS011;13779;-33.886;151.198;2022-08-19T12:49:45;6.50;;;2.78;;
25990;SDS011;13779;-33.886;151.198;2022-08-19T12:52:20;5.65;;;3.22;;
25990;SDS011;13779;-33.886;151.198;2022-08-19T12:54:52;6.35;;;4.25;;
25990;SDS011;13779;-33.886;151.198;2022-08-19T12:57:25;5.63;;;3.50;;
25990;SDS011;13779;-33.886;151.198;2022-08-19T13:00:00;4.70;;;2.83;;
25990;SDS011;13779;-33.886;151.198;2022-08-19T13:02:32;6.95;;;2.60;;
25990;SDS011;13779;-33.886;151.198;2022-08-19T13:05:04;4.68;;;2.38;;
25990;SDS011;13779;-33.886;151.198;2022-08-19T13:07:37;4.25;;;2.83;;
25990;SDS011;13779;-33.886;151.198;2022-08-19T13:10:11;6.85;;;3.35;;
25990;SDS011;13779;-33.886;151.198;2022-08-19T13:12:48;6.65;;;3.63;;
25990;SDS011;13779;-33.886;151.198;2022-08-19T13:15:21;6.50;;;3.17;;
25990;SDS011;13779;-33.886;151.198;2022-08-19T13:17:52;4.57;;;2.45;;
25990;SDS011;13779;-33.886;151.198;2022-08-19T13:20:24;6.43;;;3.58;;
25990;SDS011;13779;-33.886;151.198;2022-08-19T13:22:55;5.50;;;4.00;;
25990;SDS011;13779;-33.886;151.198;2022-08-19T13:25:25;8.25;;;4.60;;
25990;SDS011;13779;-33.886;151.198;2022-08-19T13:27:56;7.53;;;4.10;;
25990;SDS011;13779;-33.886;151.198;2022-08-19T13:33:16;5.78;;;3.47;;
25990;SDS011;13779;-33.886;151.198;2022-08-19T13:35:48;9.38;;;3.60;;
25990;SDS011;13779;-33.886;151.198;2022-08-19T13:38:25;11.77;;;3.33;;
25990;SDS011;13779;-33.886;151.198;2022-08-19T13:41:03;6.07;;;3.05;;
25990;SDS011;13779;-33.886;151.198;2022-08-19T13:43:38;5.40;;;3.17;;
25990;SDS011;13779;-33.886;151.198;2022-08-19T13:46:09;6.70;;;3.00;;
25990;SDS011;13779;-33.886;151.198;2022-08-19T13:48:43;7.88;;;3.75;;
25990;SDS011;13779;-33.886;151.198;2022-08-19T13:51:16;6.35;;;3.42;;
25990;SDS011;13779;-33.886;151.198;2022-08-19T13:53:47;11.05;;;4.53;;
25990;SDS011;13779;-33.886;151.198;2022-08-19T13:56:19;6.78;;;3.10;;
25990;SDS011;13779;-33.886;151.198;2022-08-19T13:58:52;7.47;;;2.53;;
25990;SDS011;13779;-33.886;151.198;2022-08-19T14:01:23;5.88;;;2.90;;
25990;SDS011;13779;-33.886;151.198;2022-08-19T14:03:55;6.95;;;2.85;;
25990;SDS011;13779;-33.886;151.198;2022-08-19T14:06:25;6.97;;;2.85;;
25990;SDS011;13779;-33.886;151.198;2022-08-19T14:08:56;7.82;;;2.40;;
25990;SDS011;13779;-33.886;151.198;2022-08-19T14:11:27;7.38;;;2.55;;
25990;SDS011;13779;-33.886;151.198;2022-08-19T14:14:01;5.43;;;2.97;;
25990;SDS011;13779;-33.886;151.198;2022-08-19T14:16:32;8.13;;;2.83;;
25990;SDS011;13779;-33.886;151.198;2022-08-19T14:19:02;9.00;;;3.20;;
25990;SDS011;13779;-33.886;151.198;2022-08-19T14:21:33;6.40;;;3.28;;
25990;SDS011;13779;-33.886;151.198;2022-08-19T14:24:10;4.55;;;2.53;;
25990;SDS011;13779;-33.886;151.198;2022-08-19T14:26:41;6.78;;;2.42;;
25990;SDS011;13779;-33.886;151.198;2022-08-19T14:29:11;8.27;;;4.03;;
25990;SDS011;13779;-33.886;151.198;2022-08-19T14:31:44;6.72;;;4.18;;
25990;SDS011;13779;-33.886;151.198;2022-08-19T14:34:15;9.05;;;3.83;;
25990;SDS011;13779;-33.886;151.198;2022-08-19T14:36:46;11.35;;;4.15;;
25990;SDS011;13779;-33.886;151.198;2022-08-19T14:39:17;8.18;;;3.83;;
25990;SDS011;13779;-33.886;151.198;2022-08-19T14:41:48;6.18;;;2.95;;
25990;SDS011;13779;-33.886;151.198;2022-08-19T14:44:19;10.98;;;3.92;;
25990;SDS011;13779;-33.886;151.198;2022-08-19T14:46:51;6.43;;;2.03;;
25990;SDS011;13779;-33.886;151.198;2022-08-19T14:49:21;8.18;;;3.80;;
25990;SDS011;13779;-33.886;151.198;2022-08-19T14:51:57;9.55;;;2.50;;
25990;SDS011;13779;-33.886;151.198;2022-08-19T14:54:32;9.93;;;4.65;;
25990;SDS011;13779;-33.886;151.198;2022-08-19T14:57:03;3.90;;;2.05;;
25990;SDS011;13779;-33.886;151.198;2022-08-19T14:59:34;5.82;;;2.55;;
25990;SDS011;13779;-33.886;151.198;2022-08-19T15:02:05;8.95;;;3.22;;
25990;SDS011;13779;-33.886;151.198;2022-08-19T15:04:46;6.65;;;3.28;;
25990;SDS011;13779;-33.886;151.198;2022-08-19T15:07:23;9.77;;;3.90;;
25990;SDS011;13779;-33.886;151.198;2022-08-19T15:09:55;7.63;;;2.45;;
25990;SDS011;13779;-33.886;151.198;2022-08-19T15:12:26;5.78;;;2.42;;
25990;SDS011;13779;-33.886;151.198;2022-08-19T15:15:02;8.05;;;2.92;;
25990;SDS011;13779;-33.886;151.198;2022-08-19T15:17:33;11.43;;;2.38;;
25990;SDS011;13779;-33.886;151.198;2022-08-19T15:20:14;6.88;;;2.58;;
25990;SDS011;13779;-33.886;151.198;2022-08-19T15:22:47;6.38;;;2.20;;
25990;SDS011;13779;-33.886;151.198;2022-08-19T15:25:18;4.90;;;2.45;;
25990;SDS011;13779;-33.886;151.198;2022-08-19T15:27:49;7.85;;;2.75;;
25990;SDS011;13779;-33.886;151.198;2022-08-19T15:30:22;5.28;;;2.08;;
25990;SDS011;13779;-33.886;151.198;2022-08-19T15:32:56;9.63;;;2.35;;
25990;SDS011;13779;-33.886;151.198;2022-08-19T15:35:27;5.78;;;2.15;;
25990;SDS011;13779;-33.886;151.198;2022-08-19T15:37:58;7.82;;;3.15;;
25990;SDS011;13779;-33.886;151.198;2022-08-19T15:40:29;6.90;;;2.92;;
25990;SDS011;13779;-33.886;151.198;2022-08-19T15:42:59;3.70;;;1.97;;
25990;SDS011;13779;-33.886;151.198;2022-08-19T15:45:30;8.52;;;2.47;;
25990;SDS011;13779;-33.886;151.198;2022-08-19T15:48:15;8.32;;;2.92;;
25990;SDS011;13779;-33.886;151.198;2022-08-19T15:50:45;4.38;;;1.33;;
25990;SDS011;13779;-33.886;151.198;2022-08-19T15:53:16;4.90;;;1.85;;